createdAt,value
2019-05-05T00:02:21.249Z,4.83
2019-05-05T00:04:42.476Z,3.17
2019-05-05T00:06:46.227Z,5.10
2019-05-05T00:08:50.051Z,3.73
2019-05-05T00:11:09.578Z,3.50
2019-05-05T00:13:20.954Z,10.13
2019-05-05T00:15:47.849Z,3.87
2019-05-05T00:17:51.573Z,3.70
2019-05-05T00:19:55.331Z,5.80
2019-05-05T00:21:59.138Z,4.60
2019-05-05T00:24:04.633Z,4.93
2019-05-05T00:26:08.621Z,3.63
2019-05-05T00:28:14.336Z,4.30
2019-05-05T00:30:18.080Z,5.83
2019-05-05T00:32:21.930Z,4.00
2019-05-05T00:34:25.764Z,4.10
2019-05-05T00:36:30.560Z,4.97
2019-05-05T00:38:35.203Z,4.17
2019-05-05T00:40:39.139Z,4.33
2019-05-05T00:42:42.903Z,7.20
2019-05-05T00:44:46.777Z,8.03
2019-05-05T00:47:08.154Z,5.60
2019-05-05T00:49:11.922Z,3.83
2019-05-05T00:51:15.931Z,4.07
2019-05-05T00:53:19.742Z,3.23
2019-05-05T00:55:24.437Z,4.70
2019-05-05T00:57:28.215Z,3.40
2019-05-05T00:59:32.005Z,6.10
2019-05-05T01:01:55.716Z,7.10
2019-05-05T01:04:00.029Z,5.03
2019-05-05T01:06:14.982Z,4.13
2019-05-05T01:08:22.052Z,5.23
2019-05-05T01:10:25.778Z,4.57
2019-05-05T01:12:30.656Z,4.67
2019-05-05T01:14:35.447Z,3.50
2019-05-05T01:16:39.315Z,4.27
2019-05-05T01:18:45.072Z,3.93
2019-05-05T01:20:48.764Z,4.37
2019-05-05T01:22:55.328Z,4.67
2019-05-05T01:24:59.320Z,5.73
2019-05-05T01:27:04.225Z,4.00
2019-05-05T01:29:12.112Z,9.33
2019-05-05T01:31:18.140Z,5.80
2019-05-05T01:33:31.910Z,4.60
2019-05-05T01:35:35.790Z,3.83
2019-05-05T01:37:44.956Z,4.10
2019-05-05T01:40:04.943Z,3.23
2019-05-05T01:42:14.294Z,5.50
2019-05-05T01:44:18.159Z,3.20
2019-05-05T01:46:21.963Z,4.17
2019-05-05T01:48:25.904Z,4.40
2019-05-05T01:50:31.733Z,13.23
2019-05-05T01:52:35.503Z,5.13
2019-05-05T01:54:39.315Z,5.80
2019-05-05T01:56:44.515Z,2.83
2019-05-05T01:58:49.014Z,3.67
2019-05-05T02:00:54.560Z,3.87
2019-05-05T02:02:58.567Z,4.37
2019-05-05T02:05:04.460Z,3.83
2019-05-05T02:07:09.041Z,8.40
2019-05-05T02:09:15.944Z,93.93
2019-05-05T02:11:19.871Z,74.23
2019-05-05T02:13:25.170Z,57.20
2019-05-05T02:15:29.172Z,59.60
2019-05-05T02:17:35.161Z,6.83
2019-05-05T02:19:38.643Z,5.47
2019-05-05T02:21:42.565Z,4.83
2019-05-05T02:23:47.437Z,5.97
2019-05-05T02:25:51.353Z,4.50
2019-05-05T02:27:55.127Z,3.47
2019-05-05T02:30:07.970Z,3.60
2019-05-05T02:32:20.237Z,3.43
2019-05-05T02:34:25.666Z,4.80
2019-05-05T02:36:30.751Z,5.10
2019-05-05T02:38:35.508Z,5.07
2019-05-05T02:40:39.923Z,5.80
2019-05-05T02:42:46.021Z,3.57
2019-05-05T02:44:49.949Z,4.17
2019-05-05T02:47:04.847Z,4.27
2019-05-05T02:49:09.512Z,5.30
2019-05-05T02:51:15.088Z,4.83
2019-05-05T02:53:20.084Z,5.37
2019-05-05T02:55:26.177Z,7.40
2019-05-05T02:57:30.018Z,4.23
2019-05-05T02:59:49.301Z,3.77
2019-05-05T03:02:04.315Z,4.73
2019-05-05T03:04:13.945Z,3.43
2019-05-05T03:06:17.362Z,2.70
2019-05-05T03:08:24.243Z,3.87
2019-05-05T03:10:30.610Z,2.70
2019-05-05T03:12:37.517Z,4.37
2019-05-05T03:14:44.509Z,3.50
2019-05-05T03:16:49.330Z,3.60
2019-05-05T03:18:54.506Z,5.60
2019-05-05T03:21:04.423Z,4.03
2019-05-05T03:23:04.248Z,3.97
2019-05-05T03:25:08.071Z,3.83
2019-05-05T03:27:11.900Z,4.30
2019-05-05T03:29:19.559Z,3.43
2019-05-05T03:31:26.109Z,2.77
2019-05-05T03:33:29.458Z,2.87
2019-05-05T03:35:34.552Z,4.10
2019-05-05T03:37:38.682Z,2.87
2019-05-05T03:39:46.400Z,4.30
2019-05-05T03:42:13.956Z,4.63
2019-05-05T03:44:37.039Z,5.57
2019-05-05T03:46:43.728Z,5.50
2019-05-05T03:48:47.227Z,2.83
2019-05-05T03:50:51.151Z,3.43
2019-05-05T03:52:55.439Z,6.87
2019-05-05T03:54:59.416Z,3.60
2019-05-05T03:57:09.704Z,4.27
2019-05-05T03:59:14.745Z,3.47
2019-05-05T04:01:34.873Z,3.57
2019-05-05T04:03:38.712Z,12.63
2019-05-05T04:05:47.085Z,15.20
2019-05-05T04:07:51.340Z,3.73
2019-05-05T04:09:55.203Z,2.17
2019-05-05T04:11:59.084Z,2.77
2019-05-05T04:14:03.708Z,2.67
2019-05-05T04:16:31.641Z,2.80
2019-05-05T04:18:40.577Z,3.40
2019-05-05T04:20:45.353Z,3.70
2019-05-05T04:22:51.122Z,3.17
2019-05-05T04:24:54.932Z,3.80
2019-05-05T04:26:58.743Z,4.00
2019-05-05T04:29:05.333Z,2.67
2019-05-05T04:31:07.949Z,3.20
2019-05-05T04:33:11.762Z,3.10
2019-05-05T04:35:15.668Z,4.47
2019-05-05T04:37:19.482Z,4.70
2019-05-05T04:39:23.716Z,3.13
2019-05-05T04:41:27.505Z,4.73
2019-05-05T04:43:31.302Z,6.73
2019-05-05T04:45:35.105Z,3.87
2019-05-05T04:47:43.499Z,3.87
2019-05-05T04:50:09.052Z,3.83
2019-05-05T04:52:14.375Z,8.13
2019-05-05T04:54:24.415Z,3.90
2019-05-05T04:56:29.990Z,7.03
2019-05-05T04:58:33.977Z,6.07
2019-05-05T05:00:38.057Z,5.27
2019-05-05T05:02:53.939Z,5.50
2019-05-05T05:05:04.019Z,7.27
2019-05-05T05:07:08.853Z,8.00
2019-05-05T05:09:14.502Z,6.80
2019-05-05T05:11:18.190Z,5.83
2019-05-05T05:13:23.896Z,6.30
2019-05-05T05:15:27.531Z,5.00
2019-05-05T05:17:41.759Z,6.20
2019-05-05T05:19:45.588Z,5.10
2019-05-05T05:21:59.424Z,6.03
2019-05-05T05:23:55.954Z,6.10
2019-05-05T05:25:59.774Z,7.83
2019-05-05T05:28:04.195Z,8.53
2019-05-05T05:30:09.330Z,4.57
2019-05-05T05:32:13.111Z,4.20
2019-05-05T05:34:16.904Z,5.10
2019-05-05T05:36:20.719Z,3.97
2019-05-05T05:38:24.650Z,5.73
2019-05-05T05:40:50.219Z,5.17
2019-05-05T05:42:54.327Z,4.13
2019-05-05T05:45:23.869Z,8.73
2019-05-05T05:47:53.637Z,7.80
2019-05-05T05:50:06.380Z,5.00
2019-05-05T05:52:15.853Z,6.37
2019-05-05T05:54:15.729Z,4.50
2019-05-05T05:56:19.541Z,5.27
2019-05-05T05:58:24.507Z,4.77
2019-05-05T06:00:29.514Z,7.03
2019-05-05T06:02:33.511Z,5.27
2019-05-05T06:04:37.294Z,4.23
2019-05-05T06:06:41.105Z,5.63
2019-05-05T06:08:44.992Z,4.87
2019-05-05T06:10:48.832Z,5.13
2019-05-05T06:12:54.691Z,7.23
2019-05-05T06:14:58.568Z,4.53
2019-05-05T06:17:04.301Z,6.43
2019-05-05T06:19:10.290Z,5.50
2019-05-05T06:21:13.875Z,5.83
2019-05-05T06:23:17.726Z,4.77
2019-05-05T06:25:21.478Z,5.10
2019-05-05T06:27:25.381Z,5.73
2019-05-05T06:29:29.167Z,6.97
2019-05-05T06:31:34.154Z,5.77
2019-05-05T06:33:38.111Z,4.63
2019-05-05T06:35:44.120Z,5.03
2019-05-05T06:37:54.311Z,5.87
2019-05-05T06:40:00.761Z,4.87
2019-05-05T06:42:23.695Z,5.80
2019-05-05T06:44:34.091Z,7.00
2019-05-05T06:46:56.046Z,5.70
2019-05-05T06:48:59.968Z,4.87
2019-05-05T06:51:04.190Z,3.80
2019-05-05T06:53:07.938Z,6.00
2019-05-05T06:55:13.968Z,4.27
2019-05-05T06:57:17.488Z,3.93
2019-05-05T06:59:24.173Z,4.00
2019-05-05T07:01:27.868Z,3.97
2019-05-05T07:03:33.660Z,5.50
2019-05-05T07:05:37.537Z,4.60
2019-05-05T07:07:43.435Z,6.40
2019-05-05T07:09:46.887Z,5.57
2019-05-05T07:11:50.680Z,4.57
2019-05-05T07:13:54.469Z,5.50
2019-05-05T07:15:58.197Z,3.37
2019-05-05T07:18:03.707Z,3.67
2019-05-05T07:20:07.720Z,3.67
2019-05-05T07:22:11.428Z,4.73
2019-05-05T07:24:15.309Z,5.13
2019-05-05T07:26:19.044Z,2.80
2019-05-05T07:28:23.506Z,4.27
2019-05-05T07:30:27.428Z,3.17
2019-05-05T07:32:31.235Z,3.10
2019-05-05T07:34:54.502Z,5.77
2019-05-05T07:36:58.128Z,3.43
2019-05-05T07:39:03.808Z,4.43
2019-05-05T07:41:07.474Z,4.37
2019-05-05T07:43:11.357Z,2.80
2019-05-05T07:45:22.142Z,3.47
2019-05-05T07:47:20.950Z,4.90
2019-05-05T07:49:24.798Z,3.33
2019-05-05T07:51:29.580Z,3.77
2019-05-05T07:53:33.608Z,3.50
2019-05-05T07:55:37.384Z,3.27
2019-05-05T07:57:43.414Z,3.97
2019-05-05T07:59:46.733Z,3.30
2019-05-05T08:01:50.584Z,3.07
2019-05-05T08:03:54.316Z,5.07
2019-05-05T08:05:58.128Z,2.87
2019-05-05T08:08:01.947Z,2.70
2019-05-05T08:10:05.918Z,3.57
2019-05-05T08:12:10.122Z,4.47
2019-05-05T08:14:14.550Z,3.43
2019-05-05T08:16:38.352Z,3.87
2019-05-05T08:18:57.626Z,3.43
2019-05-05T08:21:04.311Z,2.93
2019-05-05T08:23:28.002Z,2.67
2019-05-05T08:25:36.173Z,4.03
2019-05-05T08:27:39.567Z,3.47
2019-05-05T08:29:50.219Z,3.53
2019-05-05T08:31:58.762Z,3.63
2019-05-05T08:34:03.826Z,4.73
2019-05-05T08:36:07.662Z,3.60
2019-05-05T08:38:13.684Z,6.27
2019-05-05T08:40:17.151Z,3.17
2019-05-05T08:42:20.934Z,3.30
2019-05-05T08:44:24.728Z,4.23
2019-05-05T08:46:28.540Z,3.43
2019-05-05T08:48:34.161Z,2.90
2019-05-05T08:50:37.958Z,4.10
2019-05-05T08:52:41.706Z,5.03
2019-05-05T08:54:45.473Z,4.13
2019-05-05T08:56:49.367Z,3.40
2019-05-05T08:58:54.497Z,3.43
2019-05-05T09:00:58.315Z,4.73
2019-05-05T09:03:03.821Z,2.30
2019-05-05T09:05:08.202Z,2.60
2019-05-05T09:07:13.759Z,2.33
2019-05-05T09:09:18.632Z,3.17
2019-05-05T09:11:24.095Z,2.37
2019-05-05T09:13:27.824Z,3.70
2019-05-05T09:15:33.600Z,3.20
2019-05-05T09:17:37.105Z,2.93
2019-05-05T09:19:40.829Z,3.77
2019-05-05T09:21:44.861Z,2.80
2019-05-05T09:23:59.125Z,3.13
2019-05-05T09:26:14.398Z,5.47
2019-05-05T09:28:37.213Z,2.73
2019-05-05T09:30:44.449Z,4.73
2019-05-05T09:32:48.207Z,4.93
2019-05-05T09:34:53.924Z,6.23
2019-05-05T09:36:58.695Z,3.63
2019-05-05T09:39:04.349Z,5.83
2019-05-05T09:41:08.117Z,4.37
2019-05-05T09:43:12.012Z,4.27
2019-05-05T09:45:15.805Z,4.33
2019-05-05T09:47:19.601Z,5.53
2019-05-05T09:49:24.625Z,3.60
2019-05-05T09:51:28.552Z,3.67
2019-05-05T09:53:34.272Z,3.60
2019-05-05T09:55:37.798Z,3.63
2019-05-05T09:57:43.650Z,8.07
2019-05-05T09:59:47.163Z,7.60
2019-05-05T10:01:51.044Z,3.40
2019-05-05T10:03:57.481Z,4.57
2019-05-05T10:06:04.678Z,7.80
2019-05-05T10:08:07.699Z,4.37
2019-05-05T10:10:13.808Z,4.80
2019-05-05T10:12:17.336Z,3.27
2019-05-05T10:14:21.282Z,3.80
2019-05-05T10:16:25.045Z,5.70
2019-05-05T10:18:28.867Z,3.07
2019-05-05T10:20:34.381Z,7.40
2019-05-05T10:22:38.427Z,4.03
2019-05-05T10:24:48.718Z,2.80
2019-05-05T10:26:54.296Z,6.77
2019-05-05T10:29:01.103Z,3.87
2019-05-05T10:31:04.936Z,5.10
2019-05-05T10:33:08.688Z,3.47
2019-05-05T10:35:14.339Z,4.33
2019-05-05T10:37:18.148Z,3.60
2019-05-05T10:39:38.829Z,3.90
2019-05-05T10:41:44.159Z,2.27
2019-05-05T10:43:47.991Z,3.83
2019-05-05T10:45:51.701Z,2.60
2019-05-05T10:47:55.625Z,2.83
2019-05-05T10:49:59.388Z,5.70
2019-05-05T10:52:03.867Z,3.30
2019-05-05T10:54:07.887Z,3.17
2019-05-05T10:56:13.667Z,3.50
2019-05-05T10:58:19.873Z,2.80
2019-05-05T11:00:44.393Z,3.43
2019-05-05T11:02:48.579Z,3.00
2019-05-05T11:04:54.471Z,3.20
2019-05-05T11:06:57.943Z,3.97
2019-05-05T11:09:04.335Z,4.47
2019-05-05T11:11:08.029Z,1.83
2019-05-05T11:13:12.740Z,2.63
2019-05-05T11:15:16.688Z,2.93
2019-05-05T11:17:20.439Z,5.87
2019-05-05T11:19:24.192Z,2.97
2019-05-05T11:21:27.987Z,3.23
2019-05-05T11:23:34.346Z,4.50
2019-05-05T11:25:38.099Z,2.60
2019-05-05T11:27:43.861Z,2.50
2019-05-05T11:30:05.136Z,3.60
2019-05-05T11:32:15.439Z,2.63
2019-05-05T11:34:24.649Z,2.97
2019-05-05T11:36:37.081Z,4.23
2019-05-05T11:38:41.593Z,6.17
2019-05-05T11:40:45.478Z,3.17
2019-05-05T11:42:49.238Z,2.93
2019-05-05T11:44:53.044Z,4.57
2019-05-05T11:46:56.903Z,6.90
2019-05-05T11:49:00.632Z,5.10
2019-05-05T11:51:04.724Z,2.20
2019-05-05T11:53:08.498Z,3.50
2019-05-05T11:55:14.811Z,4.13
2019-05-05T11:57:17.918Z,4.30
2019-05-05T11:59:23.759Z,1.90
2019-05-05T12:01:27.663Z,4.27
2019-05-05T12:03:33.746Z,4.67
2019-05-05T12:05:36.979Z,2.80
2019-05-05T12:07:40.814Z,6.63
2019-05-05T12:09:54.995Z,2.03
2019-05-05T12:11:58.765Z,4.67
2019-05-05T12:14:03.918Z,6.83
2019-05-05T12:16:09.263Z,6.40
2019-05-05T12:18:14.355Z,3.70
2019-05-05T12:20:24.096Z,5.77
2019-05-05T12:22:27.762Z,6.47
2019-05-05T12:24:34.603Z,5.10
2019-05-05T12:27:00.332Z,7.97
2019-05-05T12:29:14.080Z,11.53
2019-05-05T12:31:21.182Z,9.10
2019-05-05T12:33:25.078Z,7.87
2019-05-05T12:35:28.810Z,5.00
2019-05-05T12:37:34.130Z,2.73
2019-05-05T12:39:37.939Z,11.20
2019-05-05T12:41:41.915Z,3.80
2019-05-05T12:43:45.737Z,21.13
2019-05-05T12:45:54.052Z,6.87
2019-05-05T12:48:17.731Z,12.53
2019-05-05T12:50:21.609Z,8.73
2019-05-05T12:52:25.361Z,7.87
2019-05-05T12:54:29.248Z,23.17
2019-05-05T12:56:34.029Z,3.70
2019-05-05T12:58:38.922Z,10.00
2019-05-05T13:00:46.015Z,8.00
2019-05-05T13:02:49.871Z,2.50
2019-05-05T13:04:53.657Z,1.53
2019-05-05T13:06:57.327Z,3.67
2019-05-05T13:09:02.123Z,3.40
2019-05-05T13:11:05.925Z,3.33
2019-05-05T13:13:09.880Z,1.83
2019-05-05T13:15:14.383Z,1.77
2019-05-05T13:17:18.155Z,2.97
2019-05-05T13:19:31.145Z,1.43
2019-05-05T13:21:54.916Z,2.53
2019-05-05T13:24:07.166Z,2.27
2019-05-05T13:26:23.575Z,2.07
2019-05-05T13:28:27.451Z,2.10
2019-05-05T13:30:31.319Z,3.10
2019-05-05T13:32:35.128Z,3.70
2019-05-05T13:34:38.874Z,2.23
2019-05-05T13:36:44.120Z,2.57
2019-05-05T13:38:48.009Z,1.83
2019-05-05T13:40:51.737Z,2.40
2019-05-05T13:42:55.536Z,1.87
2019-05-05T13:45:08.129Z,3.23
2019-05-05T13:47:11.913Z,5.87
2019-05-05T13:49:20.227Z,4.47
2019-05-05T13:51:24.156Z,3.37
2019-05-05T13:53:27.818Z,1.37
2019-05-05T13:55:31.636Z,4.67
2019-05-05T13:57:35.527Z,3.13
2019-05-05T13:59:39.485Z,1.03
2019-05-05T14:01:44.783Z,2.67
2019-05-05T14:03:48.791Z,2.03
2019-05-05T14:05:54.093Z,1.33
2019-05-05T14:07:57.813Z,2.00
2019-05-05T14:10:03.806Z,1.47
2019-05-05T14:12:07.167Z,1.63
2019-05-05T14:14:11.007Z,0.90
2019-05-05T14:16:14.788Z,0.80
2019-05-05T14:18:18.509Z,2.77
2019-05-05T14:20:23.995Z,0.90
2019-05-05T14:22:27.829Z,1.47
2019-05-05T14:24:39.491Z,4.20
2019-05-05T14:26:43.211Z,2.03
2019-05-05T14:28:47.047Z,2.50
2019-05-05T14:30:55.884Z,2.03
2019-05-05T14:33:00.899Z,2.37
2019-05-05T14:35:22.452Z,1.87
2019-05-05T14:37:53.379Z,1.03
2019-05-05T14:39:57.005Z,2.30
2019-05-05T14:42:00.739Z,1.50
2019-05-05T14:44:04.604Z,1.20
2019-05-05T14:46:08.492Z,1.63
2019-05-05T14:48:14.379Z,1.30
2019-05-05T14:50:18.649Z,1.80
2019-05-05T14:52:24.595Z,1.57
2019-05-05T14:54:27.975Z,3.53
2019-05-05T14:56:36.465Z,2.17
2019-05-05T14:58:37.307Z,3.70
2019-05-05T15:00:41.218Z,1.87
2019-05-05T15:02:45.016Z,5.70
2019-05-05T15:04:48.833Z,4.60
2019-05-05T15:07:10.754Z,5.43
2019-05-05T15:09:33.618Z,0.90
2019-05-05T15:11:47.682Z,2.03
2019-05-05T15:13:51.400Z,6.27
2019-05-05T15:15:55.129Z,1.63
2019-05-05T15:17:58.944Z,2.57
2019-05-05T15:20:02.814Z,2.87
2019-05-05T15:22:06.630Z,2.30
2019-05-05T15:24:10.525Z,3.13
2019-05-05T15:26:14.279Z,2.30
2019-05-05T15:28:18.090Z,2.67
2019-05-05T15:30:24.923Z,3.67
2019-05-05T15:32:27.395Z,2.67
2019-05-05T15:34:34.249Z,4.97
2019-05-05T15:36:37.844Z,2.60
2019-05-05T15:38:43.795Z,2.07
2019-05-05T15:40:48.662Z,1.80
2019-05-05T15:42:54.326Z,2.87
2019-05-05T15:44:58.080Z,1.80
2019-05-05T15:47:01.827Z,2.80
2019-05-05T15:49:06.643Z,2.00
2019-05-05T15:51:10.367Z,1.80
2019-05-05T15:53:14.444Z,5.03
2019-05-05T15:55:18.598Z,6.17
2019-05-05T15:57:24.107Z,8.60
2019-05-05T15:59:28.009Z,5.10
2019-05-05T16:01:31.805Z,1.30
2019-05-05T16:03:35.631Z,2.00
2019-05-05T16:05:39.498Z,0.73
2019-05-05T16:07:43.960Z,1.93
2019-05-05T16:09:47.957Z,1.43
2019-05-05T16:11:51.693Z,3.73
2019-05-05T16:13:55.422Z,2.80
2019-05-05T16:16:21.197Z,3.57
2019-05-05T16:18:32.694Z,4.60
2019-05-05T16:20:41.242Z,1.50
2019-05-05T16:22:51.564Z,6.67
2019-05-05T16:25:14.413Z,40.53
2019-05-05T16:27:21.986Z,1.63
2019-05-05T16:29:23.856Z,2.57
2019-05-05T16:31:27.834Z,1.93
2019-05-05T16:33:33.427Z,1.70
2019-05-05T16:35:37.194Z,2.50
2019-05-05T16:37:40.957Z,1.47
2019-05-05T16:39:44.796Z,2.13
2019-05-05T16:41:48.597Z,1.10
2019-05-05T16:43:53.449Z,1.13
2019-05-05T16:45:58.380Z,2.17
2019-05-05T16:48:03.918Z,2.00
2019-05-05T16:50:08.137Z,1.63
2019-05-05T16:52:18.473Z,1.87
2019-05-05T16:54:33.562Z,4.50
2019-05-05T16:56:37.122Z,2.03
2019-05-05T16:58:41.007Z,2.87
2019-05-05T17:00:44.803Z,2.63
2019-05-05T17:02:48.532Z,2.77
2019-05-05T17:04:53.891Z,6.73
2019-05-05T17:06:57.675Z,2.73
2019-05-05T17:09:01.483Z,2.20
2019-05-05T17:11:05.546Z,3.23
2019-05-05T17:13:37.409Z,3.97
2019-05-05T17:15:58.856Z,3.47
2019-05-05T17:18:32.512Z,5.27
2019-05-05T17:20:28.516Z,6.57
2019-05-05T17:22:51.291Z,5.77
2019-05-05T17:24:55.341Z,3.10
2019-05-05T17:26:59.223Z,2.23
2019-05-05T17:29:03.749Z,3.90
2019-05-05T17:31:07.562Z,3.20
2019-05-05T17:33:11.364Z,3.60
2019-05-05T17:35:15.325Z,3.47
2019-05-05T17:37:19.082Z,2.97
2019-05-05T17:39:24.294Z,4.73
2019-05-05T17:41:50.110Z,4.30
2019-05-05T17:44:03.347Z,8.10
2019-05-05T17:46:10.876Z,5.43
2019-05-05T17:48:36.703Z,4.53
2019-05-05T17:50:59.157Z,4.30
2019-05-05T17:53:09.379Z,2.23
2019-05-05T17:55:33.986Z,2.27
2019-05-05T17:57:37.746Z,3.83
2019-05-05T17:59:41.619Z,1.60
2019-05-05T18:01:45.348Z,2.57
2019-05-05T18:03:49.134Z,4.93
2019-05-05T18:06:14.236Z,4.57
2019-05-05T18:08:39.559Z,6.60
2019-05-05T18:10:46.804Z,6.43
2019-05-05T18:13:15.620Z,8.83
2019-05-05T18:15:36.931Z,8.13
2019-05-05T18:17:40.648Z,6.63
2019-05-05T18:19:44.364Z,5.73
2019-05-05T18:21:48.095Z,4.27
2019-05-05T18:23:51.872Z,3.87
2019-05-05T18:25:55.689Z,6.97
2019-05-05T18:28:12.803Z,8.43
2019-05-05T18:30:05.234Z,4.57
2019-05-05T18:32:09.028Z,6.20
2019-05-05T18:34:13.458Z,5.13
2019-05-05T18:36:17.387Z,3.30
2019-05-05T18:38:21.229Z,6.97
2019-05-05T18:40:25.122Z,9.53
2019-05-05T18:42:28.879Z,8.63
2019-05-05T18:44:36.350Z,12.30
2019-05-05T18:46:40.165Z,8.67
2019-05-05T18:48:43.946Z,6.50
2019-05-05T18:50:47.830Z,6.17
2019-05-05T18:52:53.653Z,3.87
2019-05-05T18:54:57.166Z,6.20
2019-05-05T18:57:02.181Z,3.13
2019-05-05T18:59:06.766Z,3.20
2019-05-05T19:01:28.303Z,6.07
2019-05-05T19:03:35.470Z,4.57
2019-05-05T19:06:07.422Z,4.07
2019-05-05T19:08:32.523Z,5.10
2019-05-05T19:10:36.316Z,3.70
2019-05-05T19:12:40.126Z,4.27
2019-05-05T19:14:44.301Z,2.37
2019-05-05T19:16:48.195Z,4.20
2019-05-05T19:18:53.975Z,4.27
2019-05-05T19:21:03.598Z,2.33
2019-05-05T19:23:07.443Z,1.77
2019-05-05T19:25:16.582Z,2.70
2019-05-05T19:27:20.444Z,2.40
2019-05-05T19:29:24.358Z,5.47
2019-05-05T19:31:28.181Z,3.23
2019-05-05T19:33:33.931Z,2.07
2019-05-05T19:35:43.967Z,2.80
2019-05-05T19:37:44.538Z,1.90
2019-05-05T19:39:48.420Z,3.47
2019-05-05T19:41:54.439Z,1.93
2019-05-05T19:43:57.767Z,3.27
2019-05-05T19:46:01.942Z,2.33
2019-05-05T19:48:06.099Z,2.17
2019-05-05T19:50:18.804Z,3.37
2019-05-05T19:52:24.032Z,2.83
2019-05-05T19:54:28.870Z,2.53
2019-05-05T19:56:33.860Z,2.13
2019-05-05T19:58:37.702Z,2.47
2019-05-05T20:00:41.514Z,4.70
2019-05-05T20:02:45.307Z,2.73
2019-05-05T20:04:49.036Z,2.77
2019-05-05T20:06:54.810Z,3.07
2019-05-05T20:08:58.761Z,3.30
2019-05-05T20:11:04.680Z,6.20
2019-05-05T20:13:07.984Z,4.87
2019-05-05T20:15:16.618Z,6.10
2019-05-05T20:17:25.980Z,2.93
2019-05-05T20:19:34.218Z,2.63
2019-05-05T20:21:37.952Z,2.53
2019-05-05T20:23:43.623Z,2.97
2019-05-05T20:25:47.520Z,2.07
2019-05-05T20:27:51.329Z,3.83
2019-05-05T20:29:55.141Z,2.03
2019-05-05T20:32:00.081Z,2.53
2019-05-05T20:34:13.493Z,3.70
2019-05-05T20:36:20.311Z,7.83
2019-05-05T20:38:29.697Z,3.03
2019-05-05T20:40:35.705Z,4.60
2019-05-05T20:42:39.501Z,2.63
2019-05-05T20:44:43.851Z,4.33
2019-05-05T20:46:50.724Z,2.97
2019-05-05T20:48:54.686Z,4.70
2019-05-05T20:50:58.347Z,2.23
2019-05-05T20:53:02.177Z,2.93
2019-05-05T20:55:06.048Z,1.90
2019-05-05T20:57:10.875Z,3.00
2019-05-05T20:59:27.513Z,3.30
2019-05-05T21:01:20.153Z,2.33
2019-05-05T21:03:23.924Z,3.23
2019-05-05T21:05:27.743Z,4.00
2019-05-05T21:07:31.517Z,3.63
2019-05-05T21:09:41.177Z,2.00
2019-05-05T21:11:44.982Z,4.40
2019-05-05T21:13:48.685Z,4.00
2019-05-05T21:15:53.868Z,3.03
2019-05-05T21:17:57.815Z,5.13
2019-05-05T21:20:04.193Z,5.93
2019-05-05T21:22:38.656Z,6.30
2019-05-05T21:24:44.384Z,4.13
2019-05-05T21:26:59.265Z,3.80
2019-05-05T21:29:04.589Z,6.33
2019-05-05T21:31:08.422Z,8.23
2019-05-05T21:33:12.142Z,5.00
2019-05-05T21:35:15.981Z,6.80
2019-05-05T21:37:19.765Z,2.90
2019-05-05T21:39:24.811Z,3.03
2019-05-05T21:41:28.814Z,4.33
2019-05-05T21:43:32.600Z,4.17
2019-05-05T21:45:36.402Z,3.20
2019-05-05T21:47:40.257Z,3.33
2019-05-05T21:49:43.977Z,4.97
2019-05-05T21:52:19.221Z,4.23
2019-05-05T21:54:44.725Z,3.83
2019-05-05T21:57:00.466Z,3.23
2019-05-05T21:59:04.353Z,5.73
2019-05-05T22:01:14.853Z,5.00
2019-05-05T22:03:26.970Z,4.40
2019-05-05T22:05:30.694Z,3.43
2019-05-05T22:07:34.516Z,3.27
2019-05-05T22:09:38.318Z,4.30
2019-05-05T22:11:44.279Z,3.00
2019-05-05T22:13:48.065Z,4.00
2019-05-05T22:15:51.944Z,2.90
2019-05-05T22:17:55.757Z,2.97
2019-05-05T22:20:06.767Z,4.37
2019-05-05T22:22:11.070Z,2.90
2019-05-05T22:24:16.283Z,3.63
2019-05-05T22:26:20.122Z,2.93
2019-05-05T22:28:24.317Z,2.67
2019-05-05T22:30:29.589Z,3.50
2019-05-05T22:32:34.346Z,4.80
2019-05-05T22:34:38.288Z,3.20
2019-05-05T22:36:42.179Z,4.27
2019-05-05T22:38:45.998Z,4.00
2019-05-05T22:40:49.796Z,4.07
2019-05-05T22:42:54.639Z,5.87
2019-05-05T22:44:58.515Z,4.30
2019-05-05T22:47:04.504Z,6.40
2019-05-05T22:49:08.086Z,5.20
2019-05-05T22:51:11.886Z,6.43
2019-05-05T22:53:16.254Z,6.77
2019-05-05T22:55:20.131Z,4.83
2019-05-05T22:57:24.716Z,4.33
2019-05-05T22:59:29.551Z,2.57
2019-05-05T23:01:33.422Z,6.10
2019-05-05T23:03:49.258Z,2.83
2019-05-05T23:05:56.824Z,3.83
2019-05-05T23:08:00.654Z,3.43
2019-05-05T23:10:04.790Z,5.07
2019-05-05T23:12:08.618Z,2.13
2019-05-05T23:14:29.894Z,2.63
2019-05-05T23:16:40.739Z,2.47
2019-05-05T23:18:45.631Z,2.70
2019-05-05T23:21:08.655Z,4.43
2019-05-05T23:23:40.457Z,4.20
2019-05-05T23:25:45.986Z,4.07
2019-05-05T23:27:50.520Z,2.27
2019-05-05T23:29:55.048Z,2.80
2019-05-05T23:31:58.754Z,3.53
2019-05-05T23:34:04.011Z,3.27
2019-05-05T23:36:07.874Z,2.53
2019-05-05T23:38:14.361Z,5.80
2019-05-05T23:40:24.507Z,3.63
2019-05-05T23:42:28.080Z,4.03
2019-05-05T23:44:31.822Z,9.33
2019-05-05T23:46:35.692Z,3.83
2019-05-05T23:48:39.422Z,5.10
2019-05-05T23:50:44.555Z,6.47
2019-05-05T23:52:54.763Z,7.07
2019-05-05T23:54:58.621Z,3.17
2019-05-05T23:57:04.777Z,4.27
2019-05-05T23:59:08.684Z,2.23
